createdAt,value
2022-08-11T00:01:52.495Z,18.60
2022-08-11T00:04:21.304Z,18.70
2022-08-11T00:06:48.667Z,18.60
2022-08-11T00:09:17.241Z,18.60
2022-08-11T00:11:46.432Z,18.60
2022-08-11T00:14:15.195Z,18.50
2022-08-11T00:16:42.444Z,18.50
2022-08-11T00:19:09.840Z,18.50
2022-08-11T00:22:04.833Z,18.50
2022-08-11T00:24:53.649Z,18.40
2022-08-11T00:27:36.002Z,18.40
2022-08-11T00:30:04.548Z,18.30
2022-08-11T00:32:32.129Z,18.30
2022-08-11T00:35:56.159Z,18.20
2022-08-11T00:37:52.655Z,18.20
2022-08-11T00:40:34.781Z,18.20
2022-08-11T00:43:20.968Z,18.10
2022-08-11T00:45:53.806Z,18.10
2022-08-11T00:48:20.656Z,18.10
2022-08-11T00:50:55.791Z,18.10
2022-08-11T00:53:46.972Z,18.10
2022-08-11T00:56:13.836Z,18.00
2022-08-11T00:58:50.892Z,18.00
2022-08-11T01:01:18.192Z,18.00
2022-08-11T01:04:03.835Z,18.00
2022-08-11T01:06:39.708Z,18.00
2022-08-11T01:09:25.954Z,18.00
2022-08-11T01:12:22.026Z,18.10
2022-08-11T01:14:52.176Z,18.00
2022-08-11T01:17:37.544Z,17.90
2022-08-11T01:20:46.967Z,18.00
2022-08-11T01:23:12.997Z,18.00
2022-08-11T01:26:02.743Z,18.00
2022-08-11T01:28:55.982Z,18.00
2022-08-11T01:31:51.888Z,17.90
2022-08-11T01:34:27.973Z,17.90
2022-08-11T01:37:03.937Z,17.80
2022-08-11T01:39:34.135Z,17.80
2022-08-11T01:42:38.723Z,17.80
2022-08-11T01:45:21.134Z,17.80
2022-08-11T01:47:54.526Z,17.70
2022-08-11T01:50:40.123Z,17.70
2022-08-11T01:53:09.867Z,17.70
2022-08-11T01:55:58.067Z,17.60
2022-08-11T01:58:43.131Z,17.60
2022-08-11T02:01:20.677Z,17.60
2022-08-11T02:03:55.018Z,17.60
2022-08-11T02:06:54.456Z,17.50
2022-08-11T02:09:49.699Z,17.50
2022-08-11T02:12:22.804Z,17.50
2022-08-11T02:15:05.118Z,17.40
2022-08-11T02:17:32.579Z,17.40
2022-08-11T02:20:18.173Z,17.30
2022-08-11T02:24:04.126Z,17.30
2022-08-11T02:26:18.238Z,17.30
2022-08-11T02:29:01.818Z,17.20
2022-08-11T02:32:10.976Z,17.20
2022-08-11T02:34:59.808Z,17.20
2022-08-11T02:37:30.432Z,17.20
2022-08-11T02:40:05.288Z,17.20
2022-08-11T02:42:47.578Z,17.10
2022-08-11T02:45:33.453Z,17.10
2022-08-11T02:48:31.106Z,17.10
2022-08-11T02:51:09.904Z,17.10
2022-08-11T02:53:48.874Z,17.10
2022-08-11T02:56:23.921Z,17.00
2022-08-11T02:59:10.708Z,17.00
2022-08-11T03:01:55.783Z,17.00
2022-08-11T03:04:51.475Z,17.00
2022-08-11T03:07:29.306Z,17.00
2022-08-11T03:10:13.446Z,16.90
2022-08-11T03:13:19.279Z,16.90
2022-08-11T03:16:09.875Z,16.80
2022-08-11T03:18:39.551Z,16.80
2022-08-11T03:21:09.683Z,16.70
2022-08-11T03:23:36.514Z,16.80
2022-08-11T03:26:14.604Z,16.70
2022-08-11T03:29:04.736Z,16.80
2022-08-11T03:31:34.608Z,16.70
2022-08-11T03:34:09.342Z,16.70
2022-08-11T03:37:15.123Z,16.60
2022-08-11T03:39:34.823Z,16.60
2022-08-11T03:42:20.617Z,16.60
2022-08-11T03:44:57.107Z,16.50
2022-08-11T03:47:32.295Z,16.50
2022-08-11T03:50:06.509Z,16.50
2022-08-11T03:52:33.488Z,16.50
2022-08-11T03:55:18.844Z,16.60
2022-08-11T03:57:45.742Z,16.50
2022-08-11T04:00:31.510Z,16.50
2022-08-11T04:03:22.494Z,16.50
2022-08-11T04:06:17.880Z,16.50
2022-08-11T04:08:54.064Z,16.50
2022-08-11T04:11:42.496Z,16.40
2022-08-11T04:14:43.328Z,16.40
2022-08-11T04:17:19.866Z,16.50
2022-08-11T04:20:08.235Z,16.50
2022-08-11T04:22:54.328Z,16.50
2022-08-11T04:25:29.215Z,16.50
2022-08-11T04:28:05.385Z,16.50
2022-08-11T04:30:47.704Z,16.60
2022-08-11T04:33:35.232Z,16.60
2022-08-11T04:36:09.796Z,16.60
2022-08-11T04:38:46.218Z,16.60
2022-08-11T04:41:19.075Z,16.70
2022-08-11T04:44:02.864Z,16.70
2022-08-11T04:46:52.359Z,16.70
2022-08-11T04:49:44.440Z,16.80
2022-08-11T04:52:49.445Z,16.80
2022-08-11T04:55:43.862Z,16.90
2022-08-11T04:58:32.015Z,16.90
2022-08-11T05:01:31.864Z,17.00
2022-08-11T05:04:30.956Z,17.00
2022-08-11T05:07:16.306Z,17.10
2022-08-11T05:10:02.558Z,17.20
2022-08-11T05:12:36.842Z,17.20
2022-08-11T05:15:22.650Z,17.40
2022-08-11T05:18:19.623Z,17.40
2022-08-11T05:21:10.050Z,17.50
2022-08-11T05:23:58.962Z,17.50
2022-08-11T05:26:49.409Z,17.60
2022-08-11T05:29:46.155Z,17.60
2022-08-11T05:32:34.512Z,17.80
2022-08-11T05:35:03.537Z,18.00
2022-08-11T05:37:30.481Z,18.10
2022-08-11T05:40:24.113Z,18.00
2022-08-11T05:43:11.364Z,18.10
2022-08-11T05:46:03.901Z,18.10
2022-08-11T05:48:52.069Z,18.20
2022-08-11T05:51:37.670Z,18.30
2022-08-11T05:54:29.309Z,18.30
2022-08-11T05:56:58.877Z,18.40
2022-08-11T05:59:28.544Z,18.50
2022-08-11T06:02:01.439Z,18.50
2022-08-11T06:04:28.958Z,18.50
2022-08-11T06:07:06.394Z,18.60
2022-08-11T06:09:37.238Z,18.70
2022-08-11T06:12:04.201Z,18.70
2022-08-11T06:14:31.351Z,18.70
2022-08-11T06:16:59.596Z,18.70
2022-08-11T06:19:38.629Z,18.70
2022-08-11T06:22:06.532Z,18.80
2022-08-11T06:24:34.943Z,18.80
2022-08-11T06:27:18.876Z,18.90
2022-08-11T06:29:54.812Z,19.00
2022-08-11T06:32:32.662Z,19.00
2022-08-11T06:35:05.403Z,19.10
2022-08-11T06:37:58.805Z,19.10
2022-08-11T06:40:36.574Z,19.10
2022-08-11T06:43:19.015Z,19.30
2022-08-11T06:45:51.662Z,19.30
2022-08-11T06:48:20.138Z,19.30
2022-08-11T06:51:14.979Z,19.40
2022-08-11T06:54:03.440Z,19.50
2022-08-11T06:57:12.058Z,19.60
2022-08-11T06:59:59.327Z,19.80
2022-08-11T07:02:34.022Z,19.90
2022-08-11T07:05:02.711Z,19.90
2022-08-11T07:08:33.983Z,19.90
2022-08-11T07:11:25.744Z,20.00
2022-08-11T07:14:13.175Z,20.00
2022-08-11T07:16:42.175Z,20.00
2022-08-11T07:19:28.208Z,20.00
2022-08-11T07:22:14.488Z,20.00
2022-08-11T07:25:03.559Z,20.00
2022-08-11T07:27:57.298Z,20.10
2022-08-11T07:30:24.996Z,20.20
2022-08-11T07:32:54.728Z,20.30
2022-08-11T07:35:44.634Z,20.50
2022-08-11T07:38:22.715Z,20.50
2022-08-11T07:40:52.238Z,20.60
2022-08-11T07:43:19.410Z,20.70
2022-08-11T07:46:04.942Z,20.70
2022-08-11T07:48:52.212Z,20.70
2022-08-11T07:51:40.742Z,20.90
2022-08-11T07:54:16.967Z,20.90
2022-08-11T07:56:55.210Z,21.00
2022-08-11T08:00:03.452Z,21.10
2022-08-11T08:02:47.062Z,21.20
2022-08-11T08:05:33.478Z,21.20
2022-08-11T08:08:18.668Z,21.20
2022-08-11T08:11:04.363Z,21.20
2022-08-11T08:13:51.269Z,21.40
2022-08-11T08:16:36.833Z,21.50
2022-08-11T08:19:04.000Z,21.60
2022-08-11T08:21:32.308Z,21.70
2022-08-11T08:23:59.449Z,21.80
2022-08-11T08:26:48.341Z,21.80
2022-08-11T08:29:39.040Z,21.80
2022-08-11T08:32:07.157Z,21.80
2022-08-11T08:34:38.204Z,21.90
2022-08-11T08:37:16.021Z,22.00
2022-08-11T08:39:53.092Z,22.10
2022-08-11T08:42:44.825Z,22.10
2022-08-11T08:45:16.040Z,22.10
2022-08-11T08:47:47.825Z,22.10
2022-08-11T08:50:27.468Z,22.10
2022-08-11T08:52:58.033Z,22.40
2022-08-11T08:55:27.376Z,22.60
2022-08-11T08:57:54.887Z,22.60
2022-08-11T09:00:23.619Z,22.50
2022-08-11T09:02:51.808Z,22.60
2022-08-11T09:05:19.453Z,22.70
2022-08-11T09:07:47.823Z,22.80
2022-08-11T09:10:17.533Z,22.80
2022-08-11T09:12:45.104Z,22.90
2022-08-11T09:15:13.136Z,23.00
2022-08-11T09:17:41.926Z,23.10
2022-08-11T09:20:11.820Z,23.30
2022-08-11T09:23:35.251Z,23.30
2022-08-11T09:26:04.548Z,23.40
2022-08-11T09:28:31.790Z,23.60
2022-08-11T09:31:01.325Z,23.60
2022-08-11T09:33:30.213Z,23.80
2022-08-11T09:35:57.464Z,23.60
2022-08-11T09:38:49.424Z,23.70
2022-08-11T09:41:17.122Z,23.90
2022-08-11T09:44:04.518Z,23.80
2022-08-11T09:46:33.259Z,23.80
2022-08-11T09:49:00.967Z,24.10
2022-08-11T09:51:30.872Z,24.10
2022-08-11T09:54:04.106Z,23.90
2022-08-11T09:56:49.923Z,24.10
2022-08-11T09:59:18.077Z,24.10
2022-08-11T10:01:50.924Z,23.90
2022-08-11T10:04:45.562Z,24.20
2022-08-11T10:07:15.894Z,24.20
2022-08-11T10:09:50.790Z,24.30
2022-08-11T10:12:29.837Z,24.20
2022-08-11T10:15:17.193Z,24.20
2022-08-11T10:18:06.471Z,24.20
2022-08-11T10:20:35.003Z,24.40
2022-08-11T10:23:21.503Z,24.70
2022-08-11T10:26:06.982Z,24.80
2022-08-11T10:28:50.056Z,24.90
2022-08-11T10:31:57.820Z,24.80
2022-08-11T10:34:28.357Z,24.80
2022-08-11T10:36:57.248Z,24.80
2022-08-11T10:39:24.618Z,24.70
2022-08-11T10:42:17.092Z,24.70
2022-08-11T10:44:53.368Z,24.80
2022-08-11T10:47:35.557Z,25.00
2022-08-11T10:50:20.852Z,25.10
2022-08-11T10:53:06.819Z,25.00
2022-08-11T10:55:53.278Z,25.00
2022-08-11T10:58:39.987Z,25.20
2022-08-11T11:01:07.255Z,25.20
2022-08-11T11:03:35.763Z,25.10
2022-08-11T11:06:12.797Z,25.10
2022-08-11T11:09:11.416Z,25.40
2022-08-11T11:11:57.783Z,25.70
2022-08-11T11:14:50.798Z,25.60
2022-08-11T11:17:46.294Z,25.50
2022-08-11T11:20:37.371Z,25.40
2022-08-11T11:23:03.691Z,25.60
2022-08-11T11:25:30.579Z,25.90
2022-08-11T11:28:06.228Z,25.80
2022-08-11T11:30:38.351Z,25.90
2022-08-11T11:33:11.446Z,25.90
2022-08-11T11:35:44.367Z,25.90
2022-08-11T11:38:14.118Z,25.90
2022-08-11T11:40:41.728Z,25.90
2022-08-11T11:43:08.677Z,26.00
2022-08-11T11:45:35.856Z,25.90
2022-08-11T11:48:03.038Z,26.00
2022-08-11T11:50:36.799Z,26.20
2022-08-11T11:53:08.236Z,26.20
2022-08-11T11:55:35.633Z,26.40
2022-08-11T11:58:22.226Z,26.50
2022-08-11T12:01:08.713Z,26.30
2022-08-11T12:03:38.061Z,26.30
2022-08-11T12:06:05.243Z,26.40
2022-08-11T12:08:32.368Z,26.40
2022-08-11T12:11:19.754Z,26.40
2022-08-11T12:13:47.784Z,26.40
2022-08-11T12:16:34.806Z,26.50
2022-08-11T12:19:07.182Z,26.50
2022-08-11T12:21:35.299Z,26.40
2022-08-11T12:24:21.193Z,26.50
2022-08-11T12:27:14.848Z,26.60
2022-08-11T12:29:35.781Z,26.50
2022-08-11T12:32:07.419Z,26.60
2022-08-11T12:34:34.332Z,26.60
2022-08-11T12:37:05.635Z,26.70
2022-08-11T12:40:16.315Z,26.70
2022-08-11T12:43:00.389Z,26.70
2022-08-11T12:45:31.628Z,26.70
2022-08-11T12:48:59.455Z,26.60
2022-08-11T12:51:29.918Z,26.70
2022-08-11T12:53:59.691Z,27.00
2022-08-11T12:56:50.685Z,27.10
2022-08-11T12:59:36.525Z,27.00
2022-08-11T13:02:22.389Z,26.90
2022-08-11T13:04:54.229Z,26.80
2022-08-11T13:07:21.269Z,26.90
2022-08-11T13:09:48.891Z,26.80
2022-08-11T13:12:34.908Z,26.80
2022-08-11T13:15:02.510Z,26.80
2022-08-11T13:17:43.752Z,26.80
2022-08-11T13:20:12.999Z,27.00
2022-08-11T13:22:41.423Z,27.30
2022-08-11T13:25:08.920Z,27.20
2022-08-11T13:27:42.887Z,27.10
2022-08-11T13:30:28.761Z,27.10
2022-08-11T13:32:56.318Z,27.10
2022-08-11T13:35:23.890Z,27.00
2022-08-11T13:38:18.355Z,27.10
2022-08-11T13:40:55.210Z,27.30
2022-08-11T13:43:23.380Z,27.20
2022-08-11T13:46:11.733Z,27.40
2022-08-11T13:48:38.693Z,27.40
2022-08-11T13:51:24.830Z,27.40
2022-08-11T13:54:02.134Z,27.30
2022-08-11T13:56:29.741Z,27.20
2022-08-11T13:58:57.438Z,27.20
2022-08-11T14:02:19.633Z,27.30
2022-08-11T14:04:31.183Z,27.30
2022-08-11T14:07:00.937Z,27.40
2022-08-11T14:09:28.770Z,27.40
2022-08-11T14:12:22.264Z,27.50
2022-08-11T14:15:05.897Z,27.40
2022-08-11T14:17:48.070Z,27.30
2022-08-11T14:20:39.693Z,27.40
2022-08-11T14:23:04.880Z,27.40
2022-08-11T14:26:01.262Z,27.50
2022-08-11T14:28:32.414Z,27.70
2022-08-11T14:31:03.839Z,27.70
2022-08-11T14:34:00.140Z,27.70
2022-08-11T14:36:23.949Z,27.80
2022-08-11T14:38:51.099Z,27.90
2022-08-11T14:41:36.999Z,28.00
2022-08-11T14:44:43.162Z,27.90
2022-08-11T14:47:25.000Z,28.10
2022-08-11T14:50:10.253Z,28.10
2022-08-11T14:52:40.297Z,28.20
2022-08-11T14:55:26.889Z,28.30
2022-08-11T14:57:56.699Z,28.40
2022-08-11T15:00:24.819Z,28.40
2022-08-11T15:03:11.255Z,28.40
2022-08-11T15:05:40.564Z,28.60
2022-08-11T15:08:08.267Z,28.60
2022-08-11T15:10:35.676Z,28.70
2022-08-11T15:13:03.180Z,28.90
2022-08-11T15:15:49.164Z,28.90
2022-08-11T15:18:17.392Z,29.10
2022-08-11T15:21:03.254Z,29.00
2022-08-11T15:23:49.140Z,29.30
2022-08-11T15:26:18.521Z,29.10
2022-08-11T15:29:07.891Z,29.10
2022-08-11T15:31:54.799Z,29.30
2022-08-11T15:34:43.293Z,29.30
2022-08-11T15:37:29.642Z,29.30
2022-08-11T15:40:34.955Z,29.10
2022-08-11T15:43:41.157Z,29.40
2022-08-11T15:46:23.105Z,29.40
2022-08-11T15:48:58.039Z,29.60
2022-08-11T15:51:34.575Z,29.60
2022-08-11T15:54:08.604Z,29.70
2022-08-11T15:56:38.634Z,29.50
2022-08-11T15:59:41.736Z,29.30
2022-08-11T16:02:30.860Z,29.20
2022-08-11T16:04:59.742Z,29.10
2022-08-11T16:07:31.031Z,28.90
2022-08-11T16:10:07.671Z,28.70
2022-08-11T16:12:38.063Z,28.60
2022-08-11T16:15:25.311Z,28.40
2022-08-11T16:17:53.836Z,28.20
2022-08-11T16:20:22.241Z,28.20
2022-08-11T16:22:57.238Z,28.10
2022-08-11T16:27:03.988Z,27.80
2022-08-11T16:28:18.888Z,27.60
2022-08-11T16:30:46.596Z,27.50
2022-08-11T16:33:34.069Z,27.30
2022-08-11T16:36:20.211Z,27.30
2022-08-11T16:38:48.181Z,27.20
2022-08-11T16:41:37.446Z,27.20
2022-08-11T16:44:36.957Z,27.10
2022-08-11T16:47:08.834Z,27.00
2022-08-11T16:49:37.360Z,27.00
2022-08-11T16:52:08.146Z,26.90
2022-08-11T16:54:35.522Z,26.80
2022-08-11T16:57:41.463Z,26.90
2022-08-11T17:00:12.585Z,26.80
2022-08-11T17:03:03.458Z,26.80
2022-08-11T17:05:53.887Z,26.80
2022-08-11T17:08:49.843Z,26.70
2022-08-11T17:11:47.916Z,26.70
2022-08-11T17:14:35.691Z,26.60
2022-08-11T17:17:05.500Z,26.50
2022-08-11T17:20:41.377Z,26.50
2022-08-11T17:22:39.991Z,26.40
2022-08-11T17:25:08.369Z,26.40
2022-08-11T17:27:35.724Z,26.40
2022-08-11T17:30:04.659Z,26.30
2022-08-11T17:32:56.515Z,26.30
2022-08-11T17:35:31.077Z,26.30
2022-08-11T17:37:57.917Z,26.30
2022-08-11T17:40:26.157Z,26.20
2022-08-11T17:43:13.069Z,26.10
2022-08-11T17:45:59.543Z,26.10
2022-08-11T17:48:30.563Z,26.10
2022-08-11T17:50:59.294Z,26.00
2022-08-11T17:54:16.937Z,26.00
2022-08-11T17:56:54.796Z,25.90
2022-08-11T17:59:43.807Z,25.90
2022-08-11T18:02:36.630Z,25.80
2022-08-11T18:05:09.573Z,25.70
2022-08-11T18:08:00.334Z,25.60
2022-08-11T18:10:47.729Z,25.60
2022-08-11T18:13:34.905Z,25.40
2022-08-11T18:16:20.594Z,25.50
2022-08-11T18:19:06.058Z,25.40
2022-08-11T18:22:13.010Z,25.40
2022-08-11T18:24:58.776Z,25.40
2022-08-11T18:27:49.617Z,25.30
2022-08-11T18:30:35.029Z,25.30
2022-08-11T18:36:29.800Z,25.20
2022-08-11T18:39:15.944Z,25.10
2022-08-11T18:42:03.381Z,25.00
2022-08-11T18:44:49.909Z,24.90
2022-08-11T18:47:35.779Z,24.80
2022-08-11T18:50:38.397Z,24.70
2022-08-11T18:53:25.645Z,24.70
2022-08-11T18:56:11.779Z,24.60
2022-08-11T18:59:00.050Z,24.50
2022-08-11T19:01:46.343Z,24.40
2022-08-11T19:04:32.589Z,24.30
2022-08-11T19:07:24.434Z,24.20
2022-08-11T19:10:10.233Z,24.00
2022-08-11T19:13:00.280Z,23.90
2022-08-11T19:15:46.371Z,23.90
2022-08-11T19:18:33.850Z,23.90
2022-08-11T19:21:20.124Z,23.80
2022-08-11T19:24:11.619Z,23.60
2022-08-11T19:26:57.507Z,23.50
2022-08-11T19:30:08.106Z,23.50
2022-08-11T19:32:50.446Z,23.40
2022-08-11T19:35:36.277Z,23.30
2022-08-11T19:38:22.088Z,23.30
2022-08-11T19:41:08.862Z,23.10
2022-08-11T19:43:55.352Z,23.10
2022-08-11T19:46:42.007Z,22.90
2022-08-11T19:49:29.466Z,22.80
2022-08-11T19:52:15.733Z,22.70
2022-08-11T19:55:03.125Z,22.70
2022-08-11T19:57:48.873Z,22.70
2022-08-11T20:00:35.787Z,22.60
2022-08-11T20:03:23.222Z,22.60
2022-08-11T20:06:08.954Z,22.50
2022-08-11T20:08:58.595Z,22.40
2022-08-11T20:11:45.769Z,22.30
2022-08-11T20:14:32.066Z,22.10
2022-08-11T20:17:18.353Z,22.00
2022-08-11T20:20:03.532Z,21.60
2022-08-11T20:22:49.285Z,21.30
2022-08-11T20:25:35.652Z,20.90
2022-08-11T20:28:21.972Z,20.90
2022-08-11T20:31:08.295Z,20.90
2022-08-11T20:33:53.990Z,20.90
2022-08-11T20:36:39.879Z,21.00
2022-08-11T20:39:25.717Z,21.00
2022-08-11T20:42:12.482Z,21.00
2022-08-11T20:44:57.979Z,21.00
2022-08-11T20:47:56.312Z,21.00
2022-08-11T20:50:46.341Z,20.90
2022-08-11T20:56:39.171Z,20.80
2022-08-11T20:59:26.621Z,20.70
2022-08-11T21:02:13.404Z,20.60
2022-08-11T21:05:00.088Z,20.50
2022-08-11T21:07:57.166Z,20.50
2022-08-11T21:10:46.759Z,20.40
2022-08-11T21:13:34.154Z,20.20
2022-08-11T21:16:26.260Z,20.20
2022-08-11T21:19:18.209Z,20.20
2022-08-11T21:22:05.100Z,20.10
2022-08-11T21:24:51.531Z,20.10
2022-08-11T21:27:38.836Z,20.10
2022-08-11T21:30:24.709Z,20.00
2022-08-11T21:33:10.323Z,20.00
2022-08-11T21:35:56.388Z,19.90
2022-08-11T21:38:41.620Z,19.90
2022-08-11T21:41:28.603Z,19.80
2022-08-11T21:44:14.711Z,19.80
2022-08-11T21:47:00.173Z,19.70
2022-08-11T21:49:46.652Z,19.70
2022-08-11T21:52:32.451Z,19.70
2022-08-11T21:55:18.187Z,19.70
2022-08-11T21:58:04.040Z,19.60
2022-08-11T22:00:49.690Z,19.60
2022-08-11T22:03:49.453Z,19.50
2022-08-11T22:06:36.729Z,19.50
2022-08-11T22:09:22.476Z,19.40
2022-08-11T22:12:41.125Z,19.30
2022-08-11T22:15:13.762Z,19.20
2022-08-11T22:17:59.250Z,19.10
2022-08-11T22:20:45.482Z,19.00
2022-08-11T22:23:36.013Z,19.00
2022-08-11T22:26:23.097Z,19.00
2022-08-11T22:29:09.890Z,18.90
2022-08-11T22:31:56.262Z,18.90
2022-08-11T22:34:53.508Z,18.90
2022-08-11T22:37:40.444Z,18.80
2022-08-11T22:40:27.210Z,18.70
2022-08-11T22:43:12.533Z,18.70
2022-08-11T22:45:58.178Z,18.60
2022-08-11T22:48:44.839Z,18.60
2022-08-11T22:51:31.133Z,18.50
2022-08-11T22:54:16.884Z,18.50
2022-08-11T22:57:02.722Z,18.50
2022-08-11T22:59:48.483Z,18.50
2022-08-11T23:02:34.338Z,18.40
2022-08-11T23:05:20.170Z,18.40
2022-08-11T23:08:06.059Z,18.20
2022-08-11T23:10:51.786Z,18.10
2022-08-11T23:13:38.696Z,18.00
2022-08-11T23:16:24.744Z,18.00
2022-08-11T23:19:10.485Z,17.90
2022-08-11T23:21:56.423Z,17.90
2022-08-11T23:24:43.590Z,17.80
2022-08-11T23:27:29.086Z,17.80
2022-08-11T23:30:19.623Z,17.80
2022-08-11T23:33:07.386Z,17.80
2022-08-11T23:35:56.595Z,17.80
2022-08-11T23:38:44.997Z,17.80
2022-08-11T23:41:32.401Z,17.80
2022-08-11T23:44:22.851Z,17.70
2022-08-11T23:47:09.121Z,17.60
2022-08-11T23:49:55.318Z,17.50
2022-08-11T23:52:42.118Z,17.50
2022-08-11T23:55:28.215Z,17.50
2022-08-11T23:58:13.931Z,17.50
